createdAt,value
2023-05-21T04:05:38.580Z,99.90
2023-05-21T04:09:06.189Z,99.90
2023-05-21T04:12:35.173Z,99.90
2023-05-21T04:16:02.124Z,99.90
2023-05-21T04:19:28.742Z,99.90
2023-05-21T04:22:57.268Z,99.90
2023-05-21T04:26:25.331Z,99.90
2023-05-21T04:29:54.796Z,99.90
2023-05-21T04:33:21.889Z,99.90
2023-05-21T04:36:52.138Z,99.90
2023-05-21T04:40:24.646Z,99.90
2023-05-21T04:43:55.557Z,99.90
2023-05-21T04:47:23.721Z,99.90
2023-05-21T04:50:51.250Z,99.90
2023-05-21T04:54:18.217Z,99.90
2023-05-21T04:57:46.887Z,99.90
2023-05-21T05:01:14.311Z,99.90
2023-05-21T05:04:42.379Z,99.90
2023-05-21T05:08:09.403Z,99.90
2023-05-21T05:11:36.611Z,99.90
2023-05-21T05:15:05.191Z,99.90
2023-05-21T05:18:33.370Z,99.90
2023-05-21T05:22:04.135Z,99.90
2023-05-21T05:25:31.325Z,99.90
2023-05-21T05:28:59.850Z,99.90
2023-05-21T05:32:28.588Z,99.90
2023-05-21T05:35:55.644Z,99.90
2023-05-21T05:39:22.823Z,99.90
2023-05-21T05:42:52.904Z,99.90
2023-05-21T05:46:20.677Z,99.90
2023-05-21T05:49:49.235Z,99.90
2023-05-21T05:53:16.397Z,99.90
2023-05-21T05:56:43.617Z,99.90
2023-05-21T06:00:11.478Z,99.90
2023-05-21T06:03:38.783Z,99.90
2023-05-21T06:07:07.707Z,99.90
2023-05-21T06:10:34.652Z,99.90
2023-05-21T06:14:02.141Z,99.90
2023-05-21T06:17:29.973Z,99.90
2023-05-21T06:20:57.191Z,99.90
2023-05-21T06:24:25.833Z,99.90
2023-05-21T06:27:54.190Z,99.90
2023-05-21T06:31:23.554Z,99.90
2023-05-21T06:34:50.816Z,99.90
2023-05-21T06:38:19.895Z,99.90
2023-05-21T06:41:48.528Z,99.90
2023-05-21T06:45:15.530Z,99.90
2023-05-21T06:48:42.702Z,99.90
2023-05-21T06:52:09.996Z,99.90
2023-05-21T06:55:37.703Z,99.90
2023-05-21T06:59:06.354Z,99.90
2023-05-21T07:02:33.434Z,99.90
2023-05-21T07:06:00.434Z,99.90
2023-05-21T07:09:27.449Z,99.90
2023-05-21T07:12:54.703Z,99.90
2023-05-21T07:16:23.246Z,99.90
2023-05-21T07:19:50.182Z,99.90
2023-05-21T07:23:17.255Z,99.90
2023-05-21T07:26:44.489Z,99.90
2023-05-21T07:30:12.260Z,99.90
2023-05-21T07:33:41.522Z,99.90
2023-05-21T07:37:08.631Z,99.90
2023-05-21T07:40:35.698Z,99.90
2023-05-21T07:44:02.924Z,99.90
2023-05-21T07:47:30.417Z,99.90
2023-05-21T07:51:00.163Z,99.90
2023-05-21T07:54:27.623Z,99.90
2023-05-21T07:57:54.762Z,99.90
2023-05-21T08:01:24.286Z,99.90
2023-05-21T08:04:52.798Z,99.90
2023-05-21T08:08:22.128Z,99.90
2023-05-21T08:11:49.651Z,99.90
2023-05-21T08:15:16.713Z,99.90
2023-05-21T08:18:43.699Z,99.90
2023-05-21T08:22:11.048Z,99.90
2023-05-21T08:25:39.770Z,99.90
2023-05-21T08:29:07.618Z,99.90
2023-05-21T08:32:34.749Z,99.90
2023-05-21T08:36:01.705Z,99.90
2023-05-21T08:39:29.664Z,99.90
2023-05-21T08:43:06.526Z,99.90
2023-05-21T08:46:35.181Z,99.90
2023-05-21T08:50:04.861Z,99.90
2023-05-21T08:53:34.130Z,99.90
2023-05-21T08:57:03.666Z,99.90
2023-05-21T09:00:31.212Z,99.90
2023-05-21T09:04:12.346Z,99.90
2023-05-21T09:07:52.310Z,99.90
2023-05-21T09:11:24.639Z,99.90
2023-05-21T09:14:54.111Z,99.90
2023-05-21T09:18:21.274Z,99.90
2023-05-21T09:21:48.486Z,99.90
2023-05-21T09:25:17.067Z,99.90
2023-05-21T09:28:44.943Z,99.90
2023-05-21T09:32:13.272Z,99.90
2023-05-21T09:35:47.786Z,99.90
2023-05-21T09:39:28.707Z,99.90
2023-05-21T09:42:57.085Z,99.90
2023-05-21T09:46:28.773Z,99.90
2023-05-21T09:50:00.446Z,99.90
2023-05-21T09:53:31.557Z,99.90
2023-05-21T09:57:01.744Z,99.90
2023-05-21T10:00:37.030Z,99.90
2023-05-21T10:04:10.711Z,99.90
2023-05-21T10:07:40.131Z,99.90
2023-05-21T10:11:10.099Z,99.90
2023-05-21T10:14:41.790Z,99.90
2023-05-21T10:18:14.237Z,99.90
2023-05-21T10:21:53.717Z,99.90
2023-05-21T10:25:24.939Z,99.90
2023-05-21T10:28:53.295Z,99.90
2023-05-21T10:32:26.185Z,99.90
2023-05-21T10:35:56.366Z,99.90
2023-05-21T10:39:26.732Z,99.90
2023-05-21T10:43:21.867Z,99.90
2023-05-21T10:47:17.381Z,99.90
2023-05-21T10:51:09.803Z,99.90
2023-05-21T10:55:02.198Z,99.90
2023-05-21T10:59:09.098Z,99.90
2023-05-21T11:02:39.356Z,99.90
2023-05-21T11:06:11.972Z,99.90
2023-05-21T11:09:39.641Z,99.90
2023-05-21T11:13:09.816Z,99.90
2023-05-21T11:17:13.142Z,99.90
2023-05-21T11:20:46.535Z,99.90
2023-05-21T11:24:20.541Z,99.90
2023-05-21T11:28:05.938Z,99.90
2023-05-21T11:31:38.613Z,99.90
2023-05-21T11:35:15.436Z,99.90
2023-05-21T11:38:44.482Z,99.90
2023-05-21T11:42:11.658Z,99.90
2023-05-21T11:45:47.042Z,99.90
2023-05-21T11:49:14.611Z,99.90
2023-05-21T11:52:44.395Z,99.90
2023-05-21T11:56:14.430Z,99.90
2023-05-21T11:59:43.411Z,99.90
2023-05-21T12:03:15.679Z,99.90
2023-05-21T12:06:48.451Z,99.90
2023-05-21T12:10:17.289Z,99.90
2023-05-21T12:13:44.632Z,99.90
2023-05-21T12:17:13.802Z,99.90
2023-05-21T12:20:41.458Z,99.90
2023-05-21T12:24:08.832Z,99.90
2023-05-21T12:27:37.669Z,99.90
2023-05-21T12:31:06.258Z,99.90
2023-05-21T12:34:44.979Z,99.90
2023-05-21T12:38:12.717Z,99.90
2023-05-21T12:41:41.326Z,99.90
2023-05-21T12:45:09.472Z,99.90
2023-05-21T12:48:37.170Z,99.90
2023-05-21T12:52:06.011Z,99.90
2023-05-21T12:55:34.215Z,99.90
2023-05-21T12:59:05.200Z,99.90
2023-05-21T13:02:33.310Z,99.90
2023-05-21T13:06:02.317Z,99.90
2023-05-21T13:09:29.353Z,99.70
2023-05-21T13:12:56.896Z,99.90
2023-05-21T13:16:25.748Z,99.90
2023-05-21T13:20:07.394Z,99.90
2023-05-21T13:23:35.206Z,99.10
2023-05-21T13:27:02.219Z,99.80
2023-05-21T13:30:31.326Z,99.80
2023-05-21T13:33:58.498Z,99.50
2023-05-21T13:37:25.451Z,99.20
2023-05-21T13:40:52.624Z,98.40
2023-05-21T13:44:19.920Z,97.50
2023-05-21T13:47:48.885Z,97.60
2023-05-21T13:51:30.830Z,97.20
2023-05-21T13:55:04.758Z,95.90
2023-05-21T13:58:34.723Z,96.40
2023-05-21T14:02:04.057Z,96.10
2023-05-21T14:05:31.925Z,95.60
2023-05-21T14:08:59.391Z,95.70
2023-05-21T14:12:28.740Z,95.40
2023-05-21T14:15:55.916Z,94.90
2023-05-21T14:19:24.979Z,94.60
2023-05-21T14:22:53.627Z,94.30
2023-05-21T14:26:21.256Z,94.40
2023-05-21T14:29:49.767Z,94.60
2023-05-21T14:33:17.787Z,94.40
2023-05-21T14:36:46.423Z,94.70
2023-05-21T14:40:14.688Z,94.80
2023-05-21T14:43:41.859Z,95.00
2023-05-21T14:47:09.220Z,94.50
2023-05-21T14:50:36.713Z,94.30
2023-05-21T14:54:09.755Z,93.70
2023-05-21T14:57:37.237Z,94.50
2023-05-21T15:01:05.297Z,94.80
2023-05-21T15:04:32.594Z,94.30
2023-05-21T15:07:59.987Z,94.20
2023-05-21T15:11:31.240Z,94.60
2023-05-21T15:14:58.278Z,94.80
2023-05-21T15:18:25.474Z,94.40
2023-05-21T15:21:52.777Z,94.60
2023-05-21T15:25:22.700Z,94.70
2023-05-21T15:28:51.568Z,94.90
2023-05-21T15:32:20.764Z,94.20
2023-05-21T15:35:48.874Z,94.40
2023-05-21T15:39:16.158Z,94.40
2023-05-21T15:42:44.381Z,94.30
2023-05-21T15:46:13.016Z,94.50
2023-05-21T15:49:41.973Z,94.70
2023-05-21T15:53:09.433Z,94.50
2023-05-21T15:56:39.336Z,94.40
2023-05-21T16:00:06.840Z,94.70
2023-05-21T16:03:35.431Z,94.80
2023-05-21T16:07:02.939Z,94.60
2023-05-21T16:10:30.395Z,94.80
2023-05-21T16:14:00.307Z,94.60
2023-05-21T16:17:27.642Z,94.30
2023-05-21T16:20:56.502Z,94.10
2023-05-21T16:24:24.038Z,94.20
2023-05-21T16:27:51.233Z,94.80
2023-05-21T16:31:18.306Z,94.50
2023-05-21T16:34:45.377Z,94.30
2023-05-21T16:38:14.936Z,95.10
2023-05-21T16:41:42.507Z,95.00
2023-05-21T16:45:13.365Z,94.90
2023-05-21T16:48:42.742Z,94.80
2023-05-21T16:52:10.196Z,95.70
2023-05-21T16:55:39.054Z,96.00
2023-05-21T16:59:06.636Z,96.40
2023-05-21T17:02:33.834Z,96.30
2023-05-21T17:06:00.949Z,96.70
2023-05-21T17:09:28.259Z,97.10
2023-05-21T17:12:59.859Z,97.10
2023-05-21T17:16:29.111Z,97.40
2023-05-21T17:19:56.244Z,97.60
2023-05-21T17:23:23.717Z,97.80
2023-05-21T17:26:50.672Z,98.10
2023-05-21T17:30:19.558Z,98.20
2023-05-21T17:33:46.803Z,98.50
2023-05-21T17:37:16.317Z,98.70
2023-05-21T17:40:43.618Z,98.60
2023-05-21T17:44:11.501Z,99.00
2023-05-21T17:47:40.292Z,99.10
2023-05-21T17:51:08.896Z,99.50
2023-05-21T17:54:37.943Z,99.40
2023-05-21T17:58:05.956Z,99.50
2023-05-21T18:01:33.235Z,99.80
2023-05-21T18:05:06.963Z,99.90
2023-05-21T18:08:34.346Z,99.90
2023-05-21T18:12:02.744Z,99.90
2023-05-21T18:15:30.037Z,99.90
2023-05-21T18:18:57.222Z,99.90
2023-05-21T18:22:26.212Z,99.90
2023-05-21T18:25:53.899Z,99.90
2023-05-21T18:29:21.260Z,99.90
2023-05-21T18:32:48.656Z,99.90
2023-05-21T18:36:17.372Z,99.90
2023-05-21T18:39:46.079Z,99.90
2023-05-21T18:43:14.691Z,99.90
2023-05-21T18:46:42.446Z,99.90
2023-05-21T18:50:10.382Z,99.90
2023-05-21T18:53:41.531Z,99.90
2023-05-21T18:57:10.836Z,99.90
2023-05-21T19:00:39.655Z,99.90
2023-05-21T19:04:07.089Z,99.90
2023-05-21T19:07:34.261Z,99.90
2023-05-21T19:11:03.329Z,99.90
2023-05-21T19:14:32.356Z,99.90
2023-05-21T19:18:01.204Z,99.90
2023-05-21T19:21:29.086Z,99.90
2023-05-21T19:24:56.581Z,99.90
2023-05-21T19:28:24.323Z,99.90
2023-05-21T19:31:56.002Z,99.90
2023-05-21T19:35:23.777Z,99.90
2023-05-21T19:38:51.709Z,99.90
2023-05-21T19:42:21.624Z,99.90
2023-05-21T19:45:49.206Z,99.90
2023-05-21T19:49:17.682Z,99.90
2023-05-21T19:52:45.079Z,99.90
2023-05-21T19:56:12.948Z,99.90
2023-05-21T19:59:40.190Z,99.90
2023-05-21T20:03:13.364Z,99.90
2023-05-21T20:06:42.946Z,99.90
2023-05-21T20:10:10.927Z,99.90
2023-05-21T20:13:38.159Z,99.90
2023-05-21T20:17:07.228Z,99.90
2023-05-21T20:20:38.139Z,99.90
2023-05-21T20:24:07.467Z,99.90
2023-05-21T20:27:35.382Z,99.90
2023-05-21T20:31:02.766Z,99.90
2023-05-21T20:34:32.041Z,99.90
2023-05-21T20:38:02.225Z,99.90
2023-05-21T20:41:35.670Z,99.90
2023-05-21T20:45:03.351Z,99.90
2023-05-21T20:48:31.948Z,99.90
2023-05-21T20:51:59.520Z,99.90
2023-05-21T20:55:26.713Z,99.90
2023-05-21T20:58:55.984Z,99.90
2023-05-21T21:02:23.545Z,99.90
2023-05-21T21:05:53.066Z,99.90
2023-05-21T21:09:20.596Z,99.90
2023-05-21T21:12:48.912Z,99.90
2023-05-21T21:16:18.395Z,99.90
2023-05-21T21:19:45.576Z,99.90
2023-05-21T21:23:12.804Z,99.90
2023-05-21T21:26:40.111Z,99.90
2023-05-21T21:30:07.986Z,99.90
2023-05-21T21:33:36.821Z,99.90
2023-05-21T21:37:04.961Z,99.90
2023-05-21T21:40:32.198Z,99.90
2023-05-21T21:43:59.969Z,99.90
2023-05-21T21:47:27.537Z,99.90
